sensor_id;sensor_type;location;lat;lon;timestamp;temperature;humidity
70986;DHT22;58645;43.068;25.610;2023-03-31T00:00:32;9.50;41.10
70986;DHT22;58645;43.068;25.610;2023-03-31T00:02:58;9.50;40.20
70986;DHT22;58645;43.068;25.610;2023-03-31T00:05:24;9.50;40.80
70986;DHT22;58645;43.068;25.610;2023-03-31T00:07:55;9.50;41.10
70986;DHT22;58645;43.068;25.610;2023-03-31T00:10:26;9.40;41.10
70986;DHT22;58645;43.068;25.610;2023-03-31T00:12:52;9.30;41.30
70986;DHT22;58645;43.068;25.610;2023-03-31T00:15:18;9.30;41.40
70986;DHT22;58645;43.068;25.610;2023-03-31T00:17:44;9.20;41.30
70986;DHT22;58645;43.068;25.610;2023-03-31T00:20:11;9.20;41.30
70986;DHT22;58645;43.068;25.610;2023-03-31T00:22:38;9.20;41.70
70986;DHT22;58645;43.068;25.610;2023-03-31T00:25:08;9.20;41.70
70986;DHT22;58645;43.068;25.610;2023-03-31T00:27:34;9.10;41.70
70986;DHT22;58645;43.068;25.610;2023-03-31T00:30:00;9.10;41.60
70986;DHT22;58645;43.068;25.610;2023-03-31T00:32:26;9.00;41.70
70986;DHT22;58645;43.068;25.610;2023-03-31T00:34:51;9.00;42.00
70986;DHT22;58645;43.068;25.610;2023-03-31T00:37:17;9.00;42.60
70986;DHT22;58645;43.068;25.610;2023-03-31T00:39:43;8.90;43.00
70986;DHT22;58645;43.068;25.610;2023-03-31T00:42:10;8.90;43.20
70986;DHT22;58645;43.068;25.610;2023-03-31T00:47:42;8.90;43.50
70986;DHT22;58645;43.068;25.610;2023-03-31T00:50:30;8.90;43.50
70986;DHT22;58645;43.068;25.610;2023-03-31T00:53:02;8.90;43.80
70986;DHT22;58645;43.068;25.610;2023-03-31T00:55:32;8.80;43.80
70986;DHT22;58645;43.068;25.610;2023-03-31T00:57:59;8.80;44.40
70986;DHT22;58645;43.068;25.610;2023-03-31T01:00:26;8.80;44.30
70986;DHT22;58645;43.068;25.610;2023-03-31T01:02:55;8.70;44.60
70986;DHT22;58645;43.068;25.610;2023-03-31T01:05:38;8.70;44.90
70986;DHT22;58645;43.068;25.610;2023-03-31T01:08:06;8.70;45.00
70986;DHT22;58645;43.068;25.610;2023-03-31T01:10:34;8.70;45.70
70986;DHT22;58645;43.068;25.610;2023-03-31T01:13:10;8.70;46.00
70986;DHT22;58645;43.068;25.610;2023-03-31T01:15:37;8.60;46.00
70986;DHT22;58645;43.068;25.610;2023-03-31T01:18:05;8.50;47.60
70986;DHT22;58645;43.068;25.610;2023-03-31T01:43:50;8.50;48.70
70986;DHT22;58645;43.068;25.610;2023-03-31T01:46:31;8.50;48.20
70986;DHT22;58645;43.068;25.610;2023-03-31T01:52:21;8.50;48.80
70986;DHT22;58645;43.068;25.610;2023-03-31T01:54:56;8.50;49.20
70986;DHT22;58645;43.068;25.610;2023-03-31T01:57:40;8.60;50.40
70986;DHT22;58645;43.068;25.610;2023-03-31T02:00:15;8.60;49.50
70986;DHT22;58645;43.068;25.610;2023-03-31T02:05:32;8.60;51.50
70986;DHT22;58645;43.068;25.610;2023-03-31T02:08:16;8.60;50.90
70986;DHT22;58645;43.068;25.610;2023-03-31T02:10:46;8.70;49.30
70986;DHT22;58645;43.068;25.610;2023-03-31T02:13:13;8.80;49.10
70986;DHT22;58645;43.068;25.610;2023-03-31T02:15:42;8.80;48.90
70986;DHT22;58645;43.068;25.610;2023-03-31T02:18:14;8.90;49.80
70986;DHT22;58645;43.068;25.610;2023-03-31T02:20:43;8.90;49.40
70986;DHT22;58645;43.068;25.610;2023-03-31T02:23:13;9.00;49.10
70986;DHT22;58645;43.068;25.610;2023-03-31T02:25:56;9.10;49.20
70986;DHT22;58645;43.068;25.610;2023-03-31T02:28:26;9.10;49.30
70986;DHT22;58645;43.068;25.610;2023-03-31T02:33:47;9.10;49.90
70986;DHT22;58645;43.068;25.610;2023-03-31T02:36:13;9.10;49.40
70986;DHT22;58645;43.068;25.610;2023-03-31T02:39:08;9.10;49.40
70986;DHT22;58645;43.068;25.610;2023-03-31T02:41:36;9.20;49.60
70986;DHT22;58645;43.068;25.610;2023-03-31T02:44:03;9.20;49.50
70986;DHT22;58645;43.068;25.610;2023-03-31T02:46:29;9.30;49.30
70986;DHT22;58645;43.068;25.610;2023-03-31T02:48:57;9.40;49.20
70986;DHT22;58645;43.068;25.610;2023-03-31T03:02:09;9.60;49.70
70986;DHT22;58645;43.068;25.610;2023-03-31T03:10:28;9.50;51.80
70986;DHT22;58645;43.068;25.610;2023-03-31T03:15:35;9.20;53.00
70986;DHT22;58645;43.068;25.610;2023-03-31T03:18:02;9.00;53.60
70986;DHT22;58645;43.068;25.610;2023-03-31T03:20:30;8.80;54.70
70986;DHT22;58645;43.068;25.610;2023-03-31T03:22:58;8.70;55.10
70986;DHT22;58645;43.068;25.610;2023-03-31T03:25:24;8.50;54.90
70986;DHT22;58645;43.068;25.610;2023-03-31T03:27:50;8.30;54.80
70986;DHT22;58645;43.068;25.610;2023-03-31T03:30:18;8.10;55.00
70986;DHT22;58645;43.068;25.610;2023-03-31T03:32:44;7.90;55.40
70986;DHT22;58645;43.068;25.610;2023-03-31T03:35:10;7.80;56.10
70986;DHT22;58645;43.068;25.610;2023-03-31T03:37:36;7.60;56.20
70986;DHT22;58645;43.068;25.610;2023-03-31T03:40:03;7.50;56.80
70986;DHT22;58645;43.068;25.610;2023-03-31T03:42:33;7.50;56.90
70986;DHT22;58645;43.068;25.610;2023-03-31T03:44:59;7.40;57.30
70986;DHT22;58645;43.068;25.610;2023-03-31T03:47:26;7.30;57.50
70986;DHT22;58645;43.068;25.610;2023-03-31T03:49:52;7.10;58.10
70986;DHT22;58645;43.068;25.610;2023-03-31T03:52:18;7.10;57.90
70986;DHT22;58645;43.068;25.610;2023-03-31T03:54:44;7.10;58.00
70986;DHT22;58645;43.068;25.610;2023-03-31T03:57:10;7.10;58.30
70986;DHT22;58645;43.068;25.610;2023-03-31T03:59:36;7.00;58.50
70986;DHT22;58645;43.068;25.610;2023-03-31T04:02:01;6.90;59.00
70986;DHT22;58645;43.068;25.610;2023-03-31T04:04:27;6.90;58.70
70986;DHT22;58645;43.068;25.610;2023-03-31T04:06:53;6.80;59.00
70986;DHT22;58645;43.068;25.610;2023-03-31T04:09:19;6.80;59.60
70986;DHT22;58645;43.068;25.610;2023-03-31T04:11:45;6.90;59.70
70986;DHT22;58645;43.068;25.610;2023-03-31T04:14:10;6.90;59.70
70986;DHT22;58645;43.068;25.610;2023-03-31T04:16:36;6.90;60.00
70986;DHT22;58645;43.068;25.610;2023-03-31T04:19:02;7.00;60.30
70986;DHT22;58645;43.068;25.610;2023-03-31T04:21:30;7.00;60.10
70986;DHT22;58645;43.068;25.610;2023-03-31T04:23:59;7.00;60.40
70986;DHT22;58645;43.068;25.610;2023-03-31T04:26:31;7.00;60.20
70986;DHT22;58645;43.068;25.610;2023-03-31T04:29:08;7.10;60.70
70986;DHT22;58645;43.068;25.610;2023-03-31T04:31:34;7.10;60.70
70986;DHT22;58645;43.068;25.610;2023-03-31T04:34:03;7.10;61.00
70986;DHT22;58645;43.068;25.610;2023-03-31T04:36:40;7.10;61.50
70986;DHT22;58645;43.068;25.610;2023-03-31T04:39:08;7.10;62.70
70986;DHT22;58645;43.068;25.610;2023-03-31T04:41:35;7.10;63.80
70986;DHT22;58645;43.068;25.610;2023-03-31T04:44:04;7.10;65.00
70986;DHT22;58645;43.068;25.610;2023-03-31T04:49:52;7.10;66.60
70986;DHT22;58645;43.068;25.610;2023-03-31T04:52:32;7.10;65.80
70986;DHT22;58645;43.068;25.610;2023-03-31T04:54:58;7.20;66.10
70986;DHT22;58645;43.068;25.610;2023-03-31T04:57:25;7.20;66.70
70986;DHT22;58645;43.068;25.610;2023-03-31T04:59:57;7.30;67.60
70986;DHT22;58645;43.068;25.610;2023-03-31T05:02:23;7.40;67.80
70986;DHT22;58645;43.068;25.610;2023-03-31T05:04:49;7.50;67.60
70986;DHT22;58645;43.068;25.610;2023-03-31T05:07:17;7.50;66.80
70986;DHT22;58645;43.068;25.610;2023-03-31T05:09:48;7.70;66.60
70986;DHT22;58645;43.068;25.610;2023-03-31T05:12:14;7.70;65.90
70986;DHT22;58645;43.068;25.610;2023-03-31T05:14:40;7.90;70.50
70986;DHT22;58645;43.068;25.610;2023-03-31T05:17:06;8.00;71.60
70986;DHT22;58645;43.068;25.610;2023-03-31T05:19:31;8.10;72.50
70986;DHT22;58645;43.068;25.610;2023-03-31T05:21:57;8.10;71.50
70986;DHT22;58645;43.068;25.610;2023-03-31T05:24:23;8.10;71.40
70986;DHT22;58645;43.068;25.610;2023-03-31T05:26:49;8.20;71.20
70986;DHT22;58645;43.068;25.610;2023-03-31T05:29:20;8.30;70.60
70986;DHT22;58645;43.068;25.610;2023-03-31T05:31:46;8.30;70.80
70986;DHT22;58645;43.068;25.610;2023-03-31T05:34:13;8.40;72.20
70986;DHT22;58645;43.068;25.610;2023-03-31T05:36:38;8.50;72.30
70986;DHT22;58645;43.068;25.610;2023-03-31T05:39:05;8.60;72.30
70986;DHT22;58645;43.068;25.610;2023-03-31T05:41:42;8.70;76.80
70986;DHT22;58645;43.068;25.610;2023-03-31T05:44:08;8.70;82.10
70986;DHT22;58645;43.068;25.610;2023-03-31T05:46:43;8.70;85.60
70986;DHT22;58645;43.068;25.610;2023-03-31T05:49:12;8.80;82.30
70986;DHT22;58645;43.068;25.610;2023-03-31T05:51:43;8.80;87.10
70986;DHT22;58645;43.068;25.610;2023-03-31T05:54:09;8.80;93.80
70986;DHT22;58645;43.068;25.610;2023-03-31T05:56:35;8.70;93.20
70986;DHT22;58645;43.068;25.610;2023-03-31T05:59:01;8.60;90.10
70986;DHT22;58645;43.068;25.610;2023-03-31T06:01:27;8.60;89.70
70986;DHT22;58645;43.068;25.610;2023-03-31T06:03:54;8.60;96.80
70986;DHT22;58645;43.068;25.610;2023-03-31T06:06:21;8.50;93.10
70986;DHT22;58645;43.068;25.610;2023-03-31T06:08:48;8.40;99.90
70986;DHT22;58645;43.068;25.610;2023-03-31T06:11:17;8.30;98.10
70986;DHT22;58645;43.068;25.610;2023-03-31T06:13:44;8.20;98.50
70986;DHT22;58645;43.068;25.610;2023-03-31T06:16:12;8.10;93.30
70986;DHT22;58645;43.068;25.610;2023-03-31T06:18:39;8.10;99.90
70986;DHT22;58645;43.068;25.610;2023-03-31T06:21:05;8.10;99.90
70986;DHT22;58645;43.068;25.610;2023-03-31T06:23:32;8.20;99.90
70986;DHT22;58645;43.068;25.610;2023-03-31T06:26:01;8.20;99.90
70986;DHT22;58645;43.068;25.610;2023-03-31T06:31:40;8.40;99.90
70986;DHT22;58645;43.068;25.610;2023-03-31T06:34:06;8.40;98.70
70986;DHT22;58645;43.068;25.610;2023-03-31T06:36:31;8.40;97.20
70986;DHT22;58645;43.068;25.610;2023-03-31T06:38:57;8.40;95.90
70986;DHT22;58645;43.068;25.610;2023-03-31T06:41:23;8.40;99.90
70986;DHT22;58645;43.068;25.610;2023-03-31T06:43:49;8.50;99.90
70986;DHT22;58645;43.068;25.610;2023-03-31T06:46:23;8.50;98.40
70986;DHT22;58645;43.068;25.610;2023-03-31T06:52:07;8.70;99.90
70986;DHT22;58645;43.068;25.610;2023-03-31T06:54:42;8.70;99.90
70986;DHT22;58645;43.068;25.610;2023-03-31T06:57:08;8.80;99.90
70986;DHT22;58645;43.068;25.610;2023-03-31T06:59:34;8.90;99.90
70986;DHT22;58645;43.068;25.610;2023-03-31T07:02:01;9.00;99.90
70986;DHT22;58645;43.068;25.610;2023-03-31T07:04:28;9.00;99.90
70986;DHT22;58645;43.068;25.610;2023-03-31T07:06:54;9.10;99.90
70986;DHT22;58645;43.068;25.610;2023-03-31T07:09:31;9.10;99.90
70986;DHT22;58645;43.068;25.610;2023-03-31T07:12:04;9.10;99.90
70986;DHT22;58645;43.068;25.610;2023-03-31T07:14:30;9.20;99.90
70986;DHT22;58645;43.068;25.610;2023-03-31T07:17:24;9.20;99.90
70986;DHT22;58645;43.068;25.610;2023-03-31T07:19:50;9.20;99.90
70986;DHT22;58645;43.068;25.610;2023-03-31T07:22:16;9.30;99.90
70986;DHT22;58645;43.068;25.610;2023-03-31T07:24:42;9.40;99.90
70986;DHT22;58645;43.068;25.610;2023-03-31T07:27:07;9.50;99.90
70986;DHT22;58645;43.068;25.610;2023-03-31T07:29:34;9.70;99.90
70986;DHT22;58645;43.068;25.610;2023-03-31T07:32:00;9.70;99.90
70986;DHT22;58645;43.068;25.610;2023-03-31T07:34:41;9.80;99.90
70986;DHT22;58645;43.068;25.610;2023-03-31T07:37:51;9.90;99.90
70986;DHT22;58645;43.068;25.610;2023-03-31T07:40:22;10.00;99.90
70986;DHT22;58645;43.068;25.610;2023-03-31T07:42:48;10.00;99.90
70986;DHT22;58645;43.068;25.610;2023-03-31T07:45:16;10.00;99.90
70986;DHT22;58645;43.068;25.610;2023-03-31T07:47:43;10.00;99.90
70986;DHT22;58645;43.068;25.610;2023-03-31T07:50:16;10.10;99.90
70986;DHT22;58645;43.068;25.610;2023-03-31T07:52:54;10.20;99.90
70986;DHT22;58645;43.068;25.610;2023-03-31T07:55:23;10.30;99.90
70986;DHT22;58645;43.068;25.610;2023-03-31T07:57:53;10.30;99.90
70986;DHT22;58645;43.068;25.610;2023-03-31T08:00:22;10.30;99.90
70986;DHT22;58645;43.068;25.610;2023-03-31T08:02:59;10.30;99.90
70986;DHT22;58645;43.068;25.610;2023-03-31T08:05:36;10.50;99.90
70986;DHT22;58645;43.068;25.610;2023-03-31T08:08:05;10.80;99.90
70986;DHT22;58645;43.068;25.610;2023-03-31T08:11:18;11.00;99.90
70986;DHT22;58645;43.068;25.610;2023-03-31T08:14:03;11.30;99.90
70986;DHT22;58645;43.068;25.610;2023-03-31T08:16:58;11.70;99.90
70986;DHT22;58645;43.068;25.610;2023-03-31T08:19:25;11.80;99.90
70986;DHT22;58645;43.068;25.610;2023-03-31T08:22:03;11.80;99.90
70986;DHT22;58645;43.068;25.610;2023-03-31T08:24:41;11.80;99.90
70986;DHT22;58645;43.068;25.610;2023-03-31T08:27:35;11.80;99.90
70986;DHT22;58645;43.068;25.610;2023-03-31T08:30:01;11.90;99.90
70986;DHT22;58645;43.068;25.610;2023-03-31T08:32:31;12.20;99.90
70986;DHT22;58645;43.068;25.610;2023-03-31T08:34:57;12.40;99.90
70986;DHT22;58645;43.068;25.610;2023-03-31T08:37:26;12.60;99.90
70986;DHT22;58645;43.068;25.610;2023-03-31T08:43:42;13.10;99.90
70986;DHT22;58645;43.068;25.610;2023-03-31T08:46:14;13.30;95.20
70986;DHT22;58645;43.068;25.610;2023-03-31T08:49:26;13.40;96.20
70986;DHT22;58645;43.068;25.610;2023-03-31T08:51:49;12.90;96.50
70986;DHT22;58645;43.068;25.610;2023-03-31T08:54:33;13.50;99.20
70986;DHT22;58645;43.068;25.610;2023-03-31T08:57:04;13.50;99.90
70986;DHT22;58645;43.068;25.610;2023-03-31T08:59:34;13.50;99.80
70986;DHT22;58645;43.068;25.610;2023-03-31T09:19:55;14.80;93.30
70986;DHT22;58645;43.068;25.610;2023-03-31T09:22:33;15.10;95.30
70986;DHT22;58645;43.068;25.610;2023-03-31T09:25:19;15.50;89.60
70986;DHT22;58645;43.068;25.610;2023-03-31T09:27:51;17.00;93.90
70986;DHT22;58645;43.068;25.610;2023-03-31T09:30:20;18.20;81.80
70986;DHT22;58645;43.068;25.610;2023-03-31T09:32:49;19.70;74.80
70986;DHT22;58645;43.068;25.610;2023-03-31T09:35:22;21.00;65.20
70986;DHT22;58645;43.068;25.610;2023-03-31T09:37:51;22.10;59.40
70986;DHT22;58645;43.068;25.610;2023-03-31T09:40:27;22.90;55.80
70986;DHT22;58645;43.068;25.610;2023-03-31T09:42:57;23.50;52.00
70986;DHT22;58645;43.068;25.610;2023-03-31T09:45:24;24.40;49.50
70986;DHT22;58645;43.068;25.610;2023-03-31T09:47:54;23.70;49.00
70986;DHT22;58645;43.068;25.610;2023-03-31T09:50:22;23.10;50.20
70986;DHT22;58645;43.068;25.610;2023-03-31T09:52:57;22.80;50.50
70986;DHT22;58645;43.068;25.610;2023-03-31T09:56:10;22.50;52.70
70986;DHT22;58645;43.068;25.610;2023-03-31T09:58:20;22.30;52.00
70986;DHT22;58645;43.068;25.610;2023-03-31T10:01:04;22.50;52.20
70986;DHT22;58645;43.068;25.610;2023-03-31T10:03:44;22.80;49.70
70986;DHT22;58645;43.068;25.610;2023-03-31T10:06:14;23.10;51.20
70986;DHT22;58645;43.068;25.610;2023-03-31T10:09:02;23.70;49.90
70986;DHT22;58645;43.068;25.610;2023-03-31T10:11:26;23.30;46.10
70986;DHT22;58645;43.068;25.610;2023-03-31T10:14:03;22.10;48.10
70986;DHT22;58645;43.068;25.610;2023-03-31T10:16:33;21.30;48.90
70986;DHT22;58645;43.068;25.610;2023-03-31T10:22:31;19.80;52.80
70986;DHT22;58645;43.068;25.610;2023-03-31T10:25:16;19.20;54.40
70986;DHT22;58645;43.068;25.610;2023-03-31T10:27:47;18.60;55.50
70986;DHT22;58645;43.068;25.610;2023-03-31T10:30:24;18.30;56.70
70986;DHT22;58645;43.068;25.610;2023-03-31T10:32:50;18.10;57.10
70986;DHT22;58645;43.068;25.610;2023-03-31T10:35:34;17.80;57.10
70986;DHT22;58645;43.068;25.610;2023-03-31T10:38:13;17.40;57.90
70986;DHT22;58645;43.068;25.610;2023-03-31T10:40:40;17.40;59.30
70986;DHT22;58645;43.068;25.610;2023-03-31T10:43:18;17.30;60.90
70986;DHT22;58645;43.068;25.610;2023-03-31T10:45:48;17.20;61.00
70986;DHT22;58645;43.068;25.610;2023-03-31T10:48:26;17.10;60.80
70986;DHT22;58645;43.068;25.610;2023-03-31T10:50:54;16.90;61.00
70986;DHT22;58645;43.068;25.610;2023-03-31T10:53:23;16.80;61.80
70986;DHT22;58645;43.068;25.610;2023-03-31T11:13:04;16.60;61.30
70986;DHT22;58645;43.068;25.610;2023-03-31T11:21:19;17.60;58.90
70986;DHT22;58645;43.068;25.610;2023-03-31T11:26:59;19.00;57.20
70986;DHT22;58645;43.068;25.610;2023-03-31T11:32:39;21.50;52.10
70986;DHT22;58645;43.068;25.610;2023-03-31T11:43:35;21.30;48.50
70986;DHT22;58645;43.068;25.610;2023-03-31T11:46:40;21.00;49.60
70986;DHT22;58645;43.068;25.610;2023-03-31T11:49:05;20.60;51.00
70986;DHT22;58645;43.068;25.610;2023-03-31T11:52:11;20.20;52.00
70986;DHT22;58645;43.068;25.610;2023-03-31T11:54:42;20.00;51.70
70986;DHT22;58645;43.068;25.610;2023-03-31T11:57:20;19.80;52.30
70986;DHT22;58645;43.068;25.610;2023-03-31T12:00:11;19.60;52.50
70986;DHT22;58645;43.068;25.610;2023-03-31T12:02:56;19.40;52.80
70986;DHT22;58645;43.068;25.610;2023-03-31T12:05:26;19.20;53.30
70986;DHT22;58645;43.068;25.610;2023-03-31T12:08:11;19.10;53.70
70986;DHT22;58645;43.068;25.610;2023-03-31T12:10:51;19.00;54.00
70986;DHT22;58645;43.068;25.610;2023-03-31T12:13:50;18.90;54.40
70986;DHT22;58645;43.068;25.610;2023-03-31T12:16:45;18.80;54.30
70986;DHT22;58645;43.068;25.610;2023-03-31T12:19:21;19.00;54.50
70986;DHT22;58645;43.068;25.610;2023-03-31T12:22:11;19.00;54.10
70986;DHT22;58645;43.068;25.610;2023-03-31T12:24:38;19.20;53.80
70986;DHT22;58645;43.068;25.610;2023-03-31T12:27:18;19.30;53.80
70986;DHT22;58645;43.068;25.610;2023-03-31T12:29:57;19.40;53.00
70986;DHT22;58645;43.068;25.610;2023-03-31T12:32:30;20.10;52.00
70986;DHT22;58645;43.068;25.610;2023-03-31T12:37:54;21.20;48.40
70986;DHT22;58645;43.068;25.610;2023-03-31T12:45:46;21.80;45.00
70986;DHT22;58645;43.068;25.610;2023-03-31T12:48:35;21.70;45.70
70986;DHT22;58645;43.068;25.610;2023-03-31T13:02:22;21.10;48.70
70986;DHT22;58645;43.068;25.610;2023-03-31T13:04:48;21.00;49.10
70986;DHT22;58645;43.068;25.610;2023-03-31T13:12:39;20.20;50.40
70986;DHT22;58645;43.068;25.610;2023-03-31T13:15:12;20.10;50.20
70986;DHT22;58645;43.068;25.610;2023-03-31T13:17:38;19.90;50.20
70986;DHT22;58645;43.068;25.610;2023-03-31T13:20:23;20.00;50.70
70986;DHT22;58645;43.068;25.610;2023-03-31T13:23:00;20.10;50.50
70986;DHT22;58645;43.068;25.610;2023-03-31T13:28:08;19.90;49.80
70986;DHT22;58645;43.068;25.610;2023-03-31T13:30:44;19.90;49.80
70986;DHT22;58645;43.068;25.610;2023-03-31T13:35:47;19.60;49.80
70986;DHT22;58645;43.068;25.610;2023-03-31T13:52:10;19.70;47.80
70986;DHT22;58645;43.068;25.610;2023-03-31T13:54:57;19.60;48.00
70986;DHT22;58645;43.068;25.610;2023-03-31T14:00:20;19.70;47.50
70986;DHT22;58645;43.068;25.610;2023-03-31T14:03:26;19.70;48.00
70986;DHT22;58645;43.068;25.610;2023-03-31T14:11:29;19.70;48.10
70986;DHT22;58645;43.068;25.610;2023-03-31T14:14:05;19.70;48.10
70986;DHT22;58645;43.068;25.610;2023-03-31T14:16:39;19.80;48.20
70986;DHT22;58645;43.068;25.610;2023-03-31T14:24:57;19.80;48.00
70986;DHT22;58645;43.068;25.610;2023-03-31T14:36:07;19.80;47.00
70986;DHT22;58645;43.068;25.610;2023-03-31T14:38:34;19.80;47.30
70986;DHT22;58645;43.068;25.610;2023-03-31T14:41:00;19.80;46.90
70986;DHT22;58645;43.068;25.610;2023-03-31T14:43:35;19.80;46.40
70986;DHT22;58645;43.068;25.610;2023-03-31T14:46:05;19.70;46.60
70986;DHT22;58645;43.068;25.610;2023-03-31T14:48:44;19.60;46.70
70986;DHT22;58645;43.068;25.610;2023-03-31T14:51:14;19.60;47.00
70986;DHT22;58645;43.068;25.610;2023-03-31T14:53:41;19.60;47.50
70986;DHT22;58645;43.068;25.610;2023-03-31T14:56:30;19.50;47.70
70986;DHT22;58645;43.068;25.610;2023-03-31T14:58:58;19.40;47.90
70986;DHT22;58645;43.068;25.610;2023-03-31T15:01:30;19.30;48.30
70986;DHT22;58645;43.068;25.610;2023-03-31T15:04:10;19.20;48.80
70986;DHT22;58645;43.068;25.610;2023-03-31T15:06:43;19.10;49.10
70986;DHT22;58645;43.068;25.610;2023-03-31T15:09:27;19.00;49.90
70986;DHT22;58645;43.068;25.610;2023-03-31T15:11:57;18.90;50.40
70986;DHT22;58645;43.068;25.610;2023-03-31T15:14:28;18.70;50.30
70986;DHT22;58645;43.068;25.610;2023-03-31T15:16:54;18.60;50.70
70986;DHT22;58645;43.068;25.610;2023-03-31T15:19:26;18.60;50.50
70986;DHT22;58645;43.068;25.610;2023-03-31T15:21:54;18.60;51.00
70986;DHT22;58645;43.068;25.610;2023-03-31T15:24:21;18.60;50.80
70986;DHT22;58645;43.068;25.610;2023-03-31T15:29:20;18.40;51.50
70986;DHT22;58645;43.068;25.610;2023-03-31T15:31:47;18.30;51.60
70986;DHT22;58645;43.068;25.610;2023-03-31T15:34:34;18.20;51.80
70986;DHT22;58645;43.068;25.610;2023-03-31T15:37:00;18.20;52.10
70986;DHT22;58645;43.068;25.610;2023-03-31T15:39:31;18.20;52.30
70986;DHT22;58645;43.068;25.610;2023-03-31T15:42:00;18.10;52.70
70986;DHT22;58645;43.068;25.610;2023-03-31T15:44:37;18.00;52.90
70986;DHT22;58645;43.068;25.610;2023-03-31T15:50:02;18.00;53.50
70986;DHT22;58645;43.068;25.610;2023-03-31T15:52:33;18.00;53.40
70986;DHT22;58645;43.068;25.610;2023-03-31T15:55:01;17.90;53.30
70986;DHT22;58645;43.068;25.610;2023-03-31T15:57:46;17.90;53.20
70986;DHT22;58645;43.068;25.610;2023-03-31T16:03:04;17.90;53.20
70986;DHT22;58645;43.068;25.610;2023-03-31T16:05:40;17.90;53.30
70986;DHT22;58645;43.068;25.610;2023-03-31T16:08:16;17.80;53.60
70986;DHT22;58645;43.068;25.610;2023-03-31T16:10:45;17.70;54.00
70986;DHT22;58645;43.068;25.610;2023-03-31T16:13:17;17.60;54.20
70986;DHT22;58645;43.068;25.610;2023-03-31T16:15:49;17.50;54.30
70986;DHT22;58645;43.068;25.610;2023-03-31T16:18:32;17.50;54.90
70986;DHT22;58645;43.068;25.610;2023-03-31T16:21:01;17.40;55.00
70986;DHT22;58645;43.068;25.610;2023-03-31T16:23:30;17.30;55.20
70986;DHT22;58645;43.068;25.610;2023-03-31T16:25:57;17.30;55.40
70986;DHT22;58645;43.068;25.610;2023-03-31T16:28:26;17.20;55.70
70986;DHT22;58645;43.068;25.610;2023-03-31T16:30:53;17.00;56.00
70986;DHT22;58645;43.068;25.610;2023-03-31T16:33:22;17.00;56.20
70986;DHT22;58645;43.068;25.610;2023-03-31T16:35:53;16.90;56.20
70986;DHT22;58645;43.068;25.610;2023-03-31T16:38:23;16.80;55.70
70986;DHT22;58645;43.068;25.610;2023-03-31T16:40:51;16.70;56.00
70986;DHT22;58645;43.068;25.610;2023-03-31T16:43:24;16.60;56.10
70986;DHT22;58645;43.068;25.610;2023-03-31T16:45:56;16.40;56.20
70986;DHT22;58645;43.068;25.610;2023-03-31T16:48:24;16.30;56.60
70986;DHT22;58645;43.068;25.610;2023-03-31T16:50:53;16.20;57.10
70986;DHT22;58645;43.068;25.610;2023-03-31T16:53:21;16.10;58.00
70986;DHT22;58645;43.068;25.610;2023-03-31T16:55:48;16.00;58.10
70986;DHT22;58645;43.068;25.610;2023-03-31T16:58:14;15.90;59.00
70986;DHT22;58645;43.068;25.610;2023-03-31T17:00:41;15.80;59.20
70986;DHT22;58645;43.068;25.610;2023-03-31T17:03:08;15.70;59.50
70986;DHT22;58645;43.068;25.610;2023-03-31T17:05:39;15.60;59.70
70986;DHT22;58645;43.068;25.610;2023-03-31T17:08:05;15.50;59.80
70986;DHT22;58645;43.068;25.610;2023-03-31T17:10:33;15.40;59.80
70986;DHT22;58645;43.068;25.610;2023-03-31T17:12:59;15.30;60.20
70986;DHT22;58645;43.068;25.610;2023-03-31T17:15:25;15.30;60.60
70986;DHT22;58645;43.068;25.610;2023-03-31T17:17:53;15.20;60.80
70986;DHT22;58645;43.068;25.610;2023-03-31T17:20:19;15.10;61.00
70986;DHT22;58645;43.068;25.610;2023-03-31T17:22:45;15.10;60.90
70986;DHT22;58645;43.068;25.610;2023-03-31T17:25:11;15.00;61.30
70986;DHT22;58645;43.068;25.610;2023-03-31T17:27:37;14.90;61.60
70986;DHT22;58645;43.068;25.610;2023-03-31T17:30:04;14.80;61.80
70986;DHT22;58645;43.068;25.610;2023-03-31T17:32:30;14.80;62.20
70986;DHT22;58645;43.068;25.610;2023-03-31T17:34:56;14.70;62.50
70986;DHT22;58645;43.068;25.610;2023-03-31T17:37:21;14.60;62.70
70986;DHT22;58645;43.068;25.610;2023-03-31T17:39:47;14.60;62.90
70986;DHT22;58645;43.068;25.610;2023-03-31T17:42:13;14.50;63.10
70986;DHT22;58645;43.068;25.610;2023-03-31T17:44:39;14.50;63.50
70986;DHT22;58645;43.068;25.610;2023-03-31T17:47:06;14.50;63.90
70986;DHT22;58645;43.068;25.610;2023-03-31T17:49:32;14.40;64.20
70986;DHT22;58645;43.068;25.610;2023-03-31T17:51:59;14.30;64.50
70986;DHT22;58645;43.068;25.610;2023-03-31T17:54:25;14.30;65.10
70986;DHT22;58645;43.068;25.610;2023-03-31T17:56:51;14.20;65.50
70986;DHT22;58645;43.068;25.610;2023-03-31T17:59:17;14.20;65.80
70986;DHT22;58645;43.068;25.610;2023-03-31T18:01:44;14.10;65.70
70986;DHT22;58645;43.068;25.610;2023-03-31T18:04:09;14.10;65.80
70986;DHT22;58645;43.068;25.610;2023-03-31T18:06:35;14.00;65.90
70986;DHT22;58645;43.068;25.610;2023-03-31T18:09:01;14.00;65.90
70986;DHT22;58645;43.068;25.610;2023-03-31T18:11:27;14.00;66.00
70986;DHT22;58645;43.068;25.610;2023-03-31T18:13:53;13.90;66.70
70986;DHT22;58645;43.068;25.610;2023-03-31T18:16:20;13.90;66.60
70986;DHT22;58645;43.068;25.610;2023-03-31T18:18:45;13.90;66.70
70986;DHT22;58645;43.068;25.610;2023-03-31T18:21:13;13.90;67.10
70986;DHT22;58645;43.068;25.610;2023-03-31T18:23:39;13.80;66.90
70986;DHT22;58645;43.068;25.610;2023-03-31T18:26:09;13.80;67.10
70986;DHT22;58645;43.068;25.610;2023-03-31T18:28:36;13.70;67.50
70986;DHT22;58645;43.068;25.610;2023-03-31T18:31:06;13.70;68.30
70986;DHT22;58645;43.068;25.610;2023-03-31T18:33:33;13.60;68.80
70986;DHT22;58645;43.068;25.610;2023-03-31T18:35:59;13.50;69.50
70986;DHT22;58645;43.068;25.610;2023-03-31T18:38:26;13.40;69.80
70986;DHT22;58645;43.068;25.610;2023-03-31T18:40:52;13.40;69.70
70986;DHT22;58645;43.068;25.610;2023-03-31T18:43:19;13.30;69.70
70986;DHT22;58645;43.068;25.610;2023-03-31T18:45:50;13.30;69.90
70986;DHT22;58645;43.068;25.610;2023-03-31T18:48:17;13.20;70.60
70986;DHT22;58645;43.068;25.610;2023-03-31T18:50:44;13.10;71.40
70986;DHT22;58645;43.068;25.610;2023-03-31T18:53:09;13.00;71.30
70986;DHT22;58645;43.068;25.610;2023-03-31T18:55:36;12.90;72.40
70986;DHT22;58645;43.068;25.610;2023-03-31T18:58:02;12.80;72.40
70986;DHT22;58645;43.068;25.610;2023-03-31T19:00:28;12.70;73.00
70986;DHT22;58645;43.068;25.610;2023-03-31T19:02:54;12.60;73.50
70986;DHT22;58645;43.068;25.610;2023-03-31T19:05:20;12.50;73.90
70986;DHT22;58645;43.068;25.610;2023-03-31T19:07:46;12.40;74.10